sensor_id;sensor_type;location;lat;lon;timestamp;P1;durP1;ratioP1;P2;durP2;ratioP2
6444;SDS011;64733;51.424;5.484;2022-12-07T01:24:40;1.58;;;0.22;;
6444;SDS011;64733;51.424;5.484;2022-12-07T01:27:07;1.45;;;0.40;;
6444;SDS011;64733;51.424;5.484;2022-12-07T01:29:33;1.67;;;0.43;;
6444;SDS011;64733;51.424;5.484;2022-12-07T01:32:00;1.30;;;0.38;;
6444;SDS011;64733;51.424;5.484;2022-12-07T01:34:26;3.97;;;0.55;;
6444;SDS011;64733;51.424;5.484;2022-12-07T01:36:53;2.33;;;0.82;;
6444;SDS011;64733;51.424;5.484;2022-12-07T01:39:20;1.15;;;0.52;;
6444;SDS011;64733;51.424;5.484;2022-12-07T01:41:48;1.08;;;0.40;;
6444;SDS011;64733;51.424;5.484;2022-12-07T01:44:16;1.00;;;0.60;;
6444;SDS011;64733;51.424;5.484;2022-12-07T01:46:46;2.10;;;0.50;;
6444;SDS011;64733;51.424;5.484;2022-12-07T01:49:16;2.05;;;0.25;;
6444;SDS011;64733;51.424;5.484;2022-12-07T01:51:46;0.60;;;0.30;;
6444;SDS011;64733;51.424;5.484;2022-12-07T01:54:15;0.80;;;0.40;;
6444;SDS011;64733;51.424;5.484;2022-12-07T01:56:42;2.03;;;0.40;;
6444;SDS011;64733;51.424;5.484;2022-12-07T02:01:44;1.42;;;0.30;;
6444;SDS011;64733;51.424;5.484;2022-12-07T02:04:11;2.58;;;0.20;;
6444;SDS011;64733;51.424;5.484;2022-12-07T02:06:38;0.77;;;0.15;;
6444;SDS011;64733;51.424;5.484;2022-12-07T02:09:05;0.98;;;0.20;;
6444;SDS011;64733;51.424;5.484;2022-12-07T02:11:32;0.80;;;0.38;;
6444;SDS011;64733;51.424;5.484;2022-12-07T02:13:59;1.15;;;0.30;;
6444;SDS011;64733;51.424;5.484;2022-12-07T02:16:29;0.98;;;0.40;;
6444;SDS011;64733;51.424;5.484;2022-12-07T02:19:12;1.70;;;0.32;;
6444;SDS011;64733;51.424;5.484;2022-12-07T02:22:09;0.60;;;0.22;;
6444;SDS011;64733;51.424;5.484;2022-12-07T02:24:51;2.60;;;1.20;;
6444;SDS011;64733;51.424;5.484;2022-12-07T02:27:28;0.95;;;0.50;;
6444;SDS011;64733;51.424;5.484;2022-12-07T02:30:08;0.75;;;0.30;;
6444;SDS011;64733;51.424;5.484;2022-12-07T02:32:40;1.20;;;0.50;;
6444;SDS011;64733;51.424;5.484;2022-12-07T02:35:13;0.70;;;0.20;;
6444;SDS011;64733;51.424;5.484;2022-12-07T02:37:48;0.50;;;0.30;;
6444;SDS011;64733;51.424;5.484;2022-12-07T02:40:23;0.63;;;0.22;;
6444;SDS011;64733;51.424;5.484;2022-12-07T02:42:55;1.00;;;0.35;;
6444;SDS011;64733;51.424;5.484;2022-12-07T02:45:28;0.60;;;0.10;;
6444;SDS011;64733;51.424;5.484;2022-12-07T02:47:57;0.70;;;0.22;;
6444;SDS011;64733;51.424;5.484;2022-12-07T02:50:26;1.40;;;0.50;;
6444;SDS011;64733;51.424;5.484;2022-12-07T02:52:52;1.60;;;0.60;;
6444;SDS011;64733;51.424;5.484;2022-12-07T02:55:20;1.13;;;0.30;;
6444;SDS011;64733;51.424;5.484;2022-12-07T02:58:06;0.63;;;0.20;;
6444;SDS011;64733;51.424;5.484;2022-12-07T04:12:03;0.93;;;0.23;;
6444;SDS011;64733;51.424;5.484;2022-12-07T04:14:30;0.80;;;0.10;;
6444;SDS011;64733;51.424;5.484;2022-12-07T04:16:57;0.77;;;0.47;;
6444;SDS011;64733;51.424;5.484;2022-12-07T04:19:25;1.55;;;0.95;;
6444;SDS011;64733;51.424;5.484;2022-12-07T04:21:54;0.65;;;0.25;;
6444;SDS011;64733;51.424;5.484;2022-12-07T04:24:21;0.63;;;0.05;;
6444;SDS011;64733;51.424;5.484;2022-12-07T04:26:48;0.28;;;0.05;;
6444;SDS011;64733;51.424;5.484;2022-12-07T04:29:16;1.35;;;1.25;;
6444;SDS011;64733;51.424;5.484;2022-12-07T04:31:43;1.15;;;0.32;;
6444;SDS011;64733;51.424;5.484;2022-12-07T04:34:10;0.50;;;0.30;;
6444;SDS011;64733;51.424;5.484;2022-12-07T04:36:37;0.45;;;0.15;;
6444;SDS011;64733;51.424;5.484;2022-12-07T04:39:04;0.82;;;0.38;;
6444;SDS011;64733;51.424;5.484;2022-12-07T04:41:32;0.75;;;0.20;;
6444;SDS011;64733;51.424;5.484;2022-12-07T04:44:00;0.82;;;0.82;;
6444;SDS011;64733;51.424;5.484;2022-12-07T04:46:30;0.32;;;0.10;;
6444;SDS011;64733;51.424;5.484;2022-12-07T04:48:57;0.98;;;0.32;;
6444;SDS011;64733;51.424;5.484;2022-12-07T04:51:26;1.70;;;0.47;;
6444;SDS011;64733;51.424;5.484;2022-12-07T04:53:54;1.52;;;0.13;;
6444;SDS011;64733;51.424;5.484;2022-12-07T04:56:23;0.85;;;0.10;;
6444;SDS011;64733;51.424;5.484;2022-12-07T04:58:50;0.45;;;0.25;;
6444;SDS011;64733;51.424;5.484;2022-12-07T05:01:18;0.35;;;0.03;;
6444;SDS011;64733;51.424;5.484;2022-12-07T05:03:47;0.45;;;0.22;;
6444;SDS011;64733;51.424;5.484;2022-12-07T05:06:14;0.95;;;0.22;;
6444;SDS011;64733;51.424;5.484;2022-12-07T05:08:41;0.82;;;0.82;;
6444;SDS011;64733;51.424;5.484;2022-12-07T05:11:08;1.58;;;1.40;;
6444;SDS011;64733;51.424;5.484;2022-12-07T05:13:55;0.90;;;0.90;;
6444;SDS011;64733;51.424;5.484;2022-12-07T05:16:22;1.55;;;0.70;;
6444;SDS011;64733;51.424;5.484;2022-12-07T05:18:50;0.98;;;0.10;;
6444;SDS011;64733;51.424;5.484;2022-12-07T05:21:17;0.77;;;0.22;;
6444;SDS011;64733;51.424;5.484;2022-12-07T05:23:44;1.25;;;0.30;;
6444;SDS011;64733;51.424;5.484;2022-12-07T05:26:11;5.72;;;0.40;;
6444;SDS011;64733;51.424;5.484;2022-12-07T05:28:37;1.13;;;0.03;;
6444;SDS011;64733;51.424;5.484;2022-12-07T05:31:04;1.83;;;0.20;;
6444;SDS011;64733;51.424;5.484;2022-12-07T05:33:31;0.85;;;0.15;;
6444;SDS011;64733;51.424;5.484;2022-12-07T05:35:59;1.00;;;0.90;;
6444;SDS011;64733;51.424;5.484;2022-12-07T05:38:30;1.00;;;0.30;;
6444;SDS011;64733;51.424;5.484;2022-12-07T05:40:59;3.67;;;0.17;;
6444;SDS011;64733;51.424;5.484;2022-12-07T05:43:27;2.13;;;0.35;;
6444;SDS011;64733;51.424;5.484;2022-12-07T05:45:53;2.15;;;0.13;;
6444;SDS011;64733;51.424;5.484;2022-12-07T05:48:20;2.42;;;0.55;;
6444;SDS011;64733;51.424;5.484;2022-12-07T05:50:47;1.20;;;0.05;;
6444;SDS011;64733;51.424;5.484;2022-12-07T05:53:15;1.00;;;0.73;;
6444;SDS011;64733;51.424;5.484;2022-12-07T05:55:42;0.93;;;0.28;;
6444;SDS011;64733;51.424;5.484;2022-12-07T05:58:09;0.38;;;0.38;;
6444;SDS011;64733;51.424;5.484;2022-12-07T06:00:54;1.70;;;0.50;;
6444;SDS011;64733;51.424;5.484;2022-12-07T06:03:21;3.72;;;0.25;;
6444;SDS011;64733;51.424;5.484;2022-12-07T06:05:48;2.00;;;0.43;;
6444;SDS011;64733;51.424;5.484;2022-12-07T06:08:16;1.33;;;0.20;;
6444;SDS011;64733;51.424;5.484;2022-12-07T06:10:42;0.70;;;0.30;;
6444;SDS011;64733;51.424;5.484;2022-12-07T06:13:09;2.55;;;0.22;;
6444;SDS011;64733;51.424;5.484;2022-12-07T06:15:35;0.95;;;0.25;;
6444;SDS011;64733;51.424;5.484;2022-12-07T06:18:02;0.75;;;0.22;;
6444;SDS011;64733;51.424;5.484;2022-12-07T06:20:29;3.80;;;0.25;;
6444;SDS011;64733;51.424;5.484;2022-12-07T06:22:56;1.33;;;0.03;;
6444;SDS011;64733;51.424;5.484;2022-12-07T06:25:24;0.73;;;0.20;;
6444;SDS011;64733;51.424;5.484;2022-12-07T06:27:50;0.65;;;0.17;;
6444;SDS011;64733;51.424;5.484;2022-12-07T06:30:17;0.63;;;0.45;;
6444;SDS011;64733;51.424;5.484;2022-12-07T06:32:44;0.47;;;0.00;;
6444;SDS011;64733;51.424;5.484;2022-12-07T06:35:10;0.90;;;0.43;;
6444;SDS011;64733;51.424;5.484;2022-12-07T06:37:37;0.82;;;0.32;;
6444;SDS011;64733;51.424;5.484;2022-12-07T06:40:04;0.73;;;0.30;;
6444;SDS011;64733;51.424;5.484;2022-12-07T06:42:33;3.90;;;0.20;;
6444;SDS011;64733;51.424;5.484;2022-12-07T06:45:00;1.38;;;0.13;;
6444;SDS011;64733;51.424;5.484;2022-12-07T06:47:27;0.73;;;0.13;;
6444;SDS011;64733;51.424;5.484;2022-12-07T06:49:53;1.17;;;0.03;;
6444;SDS011;64733;51.424;5.484;2022-12-07T06:52:20;1.42;;;0.10;;
6444;SDS011;64733;51.424;5.484;2022-12-07T06:54:47;1.77;;;0.08;;
6444;SDS011;64733;51.424;5.484;2022-12-07T06:57:13;0.82;;;0.30;;
6444;SDS011;64733;51.424;5.484;2022-12-07T06:59:41;0.30;;;0.00;;
6444;SDS011;64733;51.424;5.484;2022-12-07T07:48:47;3.05;;;0.95;;
6444;SDS011;64733;51.424;5.484;2022-12-07T07:51:15;0.80;;;0.17;;
6444;SDS011;64733;51.424;5.484;2022-12-07T07:53:43;1.88;;;1.00;;
6444;SDS011;64733;51.424;5.484;2022-12-07T07:56:09;0.80;;;0.40;;
6444;SDS011;64733;51.424;5.484;2022-12-07T07:58:36;0.77;;;0.30;;
6444;SDS011;64733;51.424;5.484;2022-12-07T08:01:04;0.75;;;0.60;;
6444;SDS011;64733;51.424;5.484;2022-12-07T08:03:31;0.85;;;0.82;;
6444;SDS011;64733;51.424;5.484;2022-12-07T08:05:59;0.93;;;0.00;;
6444;SDS011;64733;51.424;5.484;2022-12-07T08:08:28;0.63;;;0.63;;
6444;SDS011;64733;51.424;5.484;2022-12-07T08:10:55;0.90;;;0.55;;
6444;SDS011;64733;51.424;5.484;2022-12-07T08:13:25;0.52;;;0.52;;
6444;SDS011;64733;51.424;5.484;2022-12-07T08:15:52;1.58;;;0.40;;
6444;SDS011;64733;51.424;5.484;2022-12-07T08:18:18;0.90;;;0.82;;
6444;SDS011;64733;51.424;5.484;2022-12-07T08:20:45;0.38;;;0.22;;
6444;SDS011;64733;51.424;5.484;2022-12-07T08:23:13;1.60;;;0.68;;
6444;SDS011;64733;51.424;5.484;2022-12-07T08:25:40;0.90;;;0.63;;
6444;SDS011;64733;51.424;5.484;2022-12-07T08:28:07;0.85;;;0.85;;
6444;SDS011;64733;51.424;5.484;2022-12-07T08:30:33;1.00;;;0.47;;
6444;SDS011;64733;51.424;5.484;2022-12-07T08:33:00;0.80;;;0.80;;
6444;SDS011;64733;51.424;5.484;2022-12-07T08:35:27;1.17;;;0.80;;
6444;SDS011;64733;51.424;5.484;2022-12-07T08:37:54;1.13;;;0.47;;
6444;SDS011;64733;51.424;5.484;2022-12-07T08:40:24;0.98;;;0.65;;
6444;SDS011;64733;51.424;5.484;2022-12-07T08:42:51;0.60;;;0.60;;
6444;SDS011;64733;51.424;5.484;2022-12-07T08:45:18;1.02;;;1.02;;
6444;SDS011;64733;51.424;5.484;2022-12-07T08:47:46;1.38;;;1.05;;
6444;SDS011;64733;51.424;5.484;2022-12-07T08:50:16;0.80;;;0.73;;
6444;SDS011;64733;51.424;5.484;2022-12-07T08:52:43;1.60;;;0.65;;
6444;SDS011;64733;51.424;5.484;2022-12-07T08:55:10;1.35;;;0.70;;
6444;SDS011;64733;51.424;5.484;2022-12-07T11:56:28;2.22;;;0.25;;
6444;SDS011;64733;51.424;5.484;2022-12-07T11:59:02;0.60;;;0.20;;
6444;SDS011;64733;51.424;5.484;2022-12-07T12:01:38;0.75;;;0.38;;
6444;SDS011;64733;51.424;5.484;2022-12-07T12:04:16;0.93;;;0.20;;
6444;SDS011;64733;51.424;5.484;2022-12-07T12:06:52;0.77;;;0.10;;
6444;SDS011;64733;51.424;5.484;2022-12-07T12:09:21;1.58;;;0.10;;
6444;SDS011;64733;51.424;5.484;2022-12-07T12:15:13;1.85;;;0.20;;
6444;SDS011;64733;51.424;5.484;2022-12-07T12:17:50;0.90;;;0.10;;
6444;SDS011;64733;51.424;5.484;2022-12-07T12:20:32;1.65;;;0.20;;
6444;SDS011;64733;51.424;5.484;2022-12-07T12:25:35;1.70;;;0.10;;
6444;SDS011;64733;51.424;5.484;2022-12-07T12:28:05;1.35;;;0.35;;
6444;SDS011;64733;51.424;5.484;2022-12-07T12:30:46;2.05;;;0.40;;
6444;SDS011;64733;51.424;5.484;2022-12-07T12:33:31;4.75;;;0.43;;
6444;SDS011;64733;51.424;5.484;2022-12-07T12:36:19;3.30;;;0.20;;
6444;SDS011;64733;51.424;5.484;2022-12-07T12:38:49;1.08;;;0.30;;
6444;SDS011;64733;51.424;5.484;2022-12-07T12:44:41;2.30;;;0.10;;
6444;SDS011;64733;51.424;5.484;2022-12-07T12:50:31;1.42;;;0.20;;
6444;SDS011;64733;51.424;5.484;2022-12-07T12:53:12;1.80;;;0.20;;
6444;SDS011;64733;51.424;5.484;2022-12-07T12:58:47;2.03;;;0.28;;
6444;SDS011;64733;51.424;5.484;2022-12-07T13:04:23;1.13;;;0.10;;
6444;SDS011;64733;51.424;5.484;2022-12-07T13:06:53;1.70;;;0.17;;
6444;SDS011;64733;51.424;5.484;2022-12-07T13:09:21;3.45;;;0.15;;
6444;SDS011;64733;51.424;5.484;2022-12-07T13:11:55;2.38;;;0.10;;
6444;SDS011;64733;51.424;5.484;2022-12-07T13:14:39;1.67;;;0.40;;
6444;SDS011;64733;51.424;5.484;2022-12-07T13:23:08;1.25;;;0.50;;
6444;SDS011;64733;51.424;5.484;2022-12-07T13:25:49;0.73;;;0.38;;
6444;SDS011;64733;51.424;5.484;2022-12-07T13:28:22;1.90;;;0.20;;
6444;SDS011;64733;51.424;5.484;2022-12-07T13:31:09;1.38;;;0.17;;
6444;SDS011;64733;51.424;5.484;2022-12-07T15:17:33;4.07;;;1.17;;
6444;SDS011;64733;51.424;5.484;2022-12-07T15:20:00;1.65;;;0.80;;
6444;SDS011;64733;51.424;5.484;2022-12-07T15:22:27;1.20;;;1.00;;
6444;SDS011;64733;51.424;5.484;2022-12-07T15:24:56;1.48;;;0.60;;
6444;SDS011;64733;51.424;5.484;2022-12-07T15:27:23;0.95;;;0.60;;
6444;SDS011;64733;51.424;5.484;2022-12-07T15:29:50;4.90;;;0.73;;
6444;SDS011;64733;51.424;5.484;2022-12-07T15:32:18;1.17;;;0.75;;
6444;SDS011;64733;51.424;5.484;2022-12-07T15:34:46;2.65;;;0.85;;
6444;SDS011;64733;51.424;5.484;2022-12-07T15:37:13;0.77;;;0.70;;
6444;SDS011;64733;51.424;5.484;2022-12-07T15:39:40;1.67;;;1.13;;
6444;SDS011;64733;51.424;5.484;2022-12-07T15:42:06;1.30;;;0.85;;
6444;SDS011;64733;51.424;5.484;2022-12-07T15:44:33;1.05;;;1.05;;
6444;SDS011;64733;51.424;5.484;2022-12-07T15:47:17;1.50;;;0.82;;
6444;SDS011;64733;51.424;5.484;2022-12-07T15:49:44;1.30;;;0.70;;
6444;SDS011;64733;51.424;5.484;2022-12-07T15:52:12;2.35;;;1.50;;
6444;SDS011;64733;51.424;5.484;2022-12-07T15:54:39;1.30;;;0.20;;
6444;SDS011;64733;51.424;5.484;2022-12-07T15:57:05;4.68;;;0.85;;
6444;SDS011;64733;51.424;5.484;2022-12-07T15:59:32;1.70;;;0.93;;
6444;SDS011;64733;51.424;5.484;2022-12-07T16:01:59;1.75;;;1.08;;
6444;SDS011;64733;51.424;5.484;2022-12-07T16:04:26;1.73;;;0.50;;
6444;SDS011;64733;51.424;5.484;2022-12-07T16:06:54;1.27;;;1.08;;
6444;SDS011;64733;51.424;5.484;2022-12-07T16:09:22;2.45;;;0.95;;
6444;SDS011;64733;51.424;5.484;2022-12-07T16:11:49;1.02;;;0.98;;
6444;SDS011;64733;51.424;5.484;2022-12-07T16:14:17;0.73;;;0.20;;
6444;SDS011;64733;51.424;5.484;2022-12-07T16:16:44;1.48;;;0.60;;
6444;SDS011;64733;51.424;5.484;2022-12-07T16:19:11;0.73;;;0.73;;
6444;SDS011;64733;51.424;5.484;2022-12-07T16:21:37;1.23;;;0.85;;
6444;SDS011;64733;51.424;5.484;2022-12-07T16:24:05;2.10;;;1.05;;
6444;SDS011;64733;51.424;5.484;2022-12-07T16:26:34;1.80;;;1.02;;
6444;SDS011;64733;51.424;5.484;2022-12-07T16:29:01;1.77;;;0.45;;
6444;SDS011;64733;51.424;5.484;2022-12-07T16:31:27;0.88;;;0.38;;
6444;SDS011;64733;51.424;5.484;2022-12-07T16:33:55;1.17;;;0.75;;
6444;SDS011;64733;51.424;5.484;2022-12-07T16:36:23;2.13;;;0.57;;
6444;SDS011;64733;51.424;5.484;2022-12-07T16:38:52;1.65;;;1.42;;
6444;SDS011;64733;51.424;5.484;2022-12-07T16:41:19;2.88;;;0.68;;
6444;SDS011;64733;51.424;5.484;2022-12-07T16:43:47;2.45;;;0.77;;
6444;SDS011;64733;51.424;5.484;2022-12-07T16:46:14;1.35;;;0.60;;
6444;SDS011;64733;51.424;5.484;2022-12-07T16:48:41;1.27;;;0.80;;
6444;SDS011;64733;51.424;5.484;2022-12-07T16:51:09;2.80;;;1.27;;
6444;SDS011;64733;51.424;5.484;2022-12-07T16:53:37;2.40;;;1.40;;
6444;SDS011;64733;51.424;5.484;2022-12-07T16:56:08;1.27;;;1.13;;
6444;SDS011;64733;51.424;5.484;2022-12-07T16:58:36;5.18;;;0.90;;
6444;SDS011;64733;51.424;5.484;2022-12-07T17:01:09;5.07;;;1.33;;
6444;SDS011;64733;51.424;5.484;2022-12-07T17:03:37;2.78;;;1.10;;
6444;SDS011;64733;51.424;5.484;2022-12-07T17:06:10;1.85;;;0.95;;
6444;SDS011;64733;51.424;5.484;2022-12-07T17:08:40;1.10;;;0.90;;
6444;SDS011;64733;51.424;5.484;2022-12-07T17:11:11;4.05;;;1.30;;
6444;SDS011;64733;51.424;5.484;2022-12-07T17:13:38;2.13;;;0.80;;
6444;SDS011;64733;51.424;5.484;2022-12-07T17:16:24;1.10;;;0.80;;
6444;SDS011;64733;51.424;5.484;2022-12-07T17:18:50;3.45;;;0.88;;
6444;SDS011;64733;51.424;5.484;2022-12-07T17:21:17;2.40;;;0.90;;
6444;SDS011;64733;51.424;5.484;2022-12-07T17:23:44;2.45;;;1.15;;
6444;SDS011;64733;51.424;5.484;2022-12-07T17:26:12;2.30;;;0.75;;
6444;SDS011;64733;51.424;5.484;2022-12-07T17:28:41;2.72;;;1.23;;
6444;SDS011;64733;51.424;5.484;2022-12-07T17:31:09;2.35;;;0.93;;
6444;SDS011;64733;51.424;5.484;2022-12-07T17:33:38;1.25;;;1.08;;
6444;SDS011;64733;51.424;5.484;2022-12-07T17:36:09;3.92;;;0.90;;
6444;SDS011;64733;51.424;5.484;2022-12-07T17:38:36;1.80;;;0.85;;
6444;SDS011;64733;51.424;5.484;2022-12-07T17:41:08;2.30;;;1.08;;
6444;SDS011;64733;51.424;5.484;2022-12-07T17:43:35;2.22;;;1.27;;
6444;SDS011;64733;51.424;5.484;2022-12-07T17:46:04;3.13;;;0.63;;
6444;SDS011;64733;51.424;5.484;2022-12-07T17:48:32;1.70;;;0.88;;
6444;SDS011;64733;51.424;5.484;2022-12-07T17:51:00;3.08;;;1.00;;
6444;SDS011;64733;51.424;5.484;2022-12-07T17:53:47;2.97;;;1.20;;
6444;SDS011;64733;51.424;5.484;2022-12-07T17:56:14;4.72;;;1.00;;
6444;SDS011;64733;51.424;5.484;2022-12-07T17:58:41;2.03;;;0.88;;
6444;SDS011;64733;51.424;5.484;2022-12-07T18:01:08;1.95;;;1.05;;
6444;SDS011;64733;51.424;5.484;2022-12-07T18:03:35;3.85;;;0.32;;
6444;SDS011;64733;51.424;5.484;2022-12-07T18:06:03;4.53;;;0.77;;
6444;SDS011;64733;51.424;5.484;2022-12-07T18:08:32;2.97;;;1.02;;
6444;SDS011;64733;51.424;5.484;2022-12-07T18:11:01;2.13;;;0.93;;
6444;SDS011;64733;51.424;5.484;2022-12-07T18:13:29;6.80;;;1.25;;
6444;SDS011;64733;51.424;5.484;2022-12-07T18:16:02;3.30;;;1.13;;
6444;SDS011;64733;51.424;5.484;2022-12-07T18:18:30;1.63;;;1.08;;
6444;SDS011;64733;51.424;5.484;2022-12-07T18:20:57;1.45;;;0.75;;
6444;SDS011;64733;51.424;5.484;2022-12-07T18:23:25;1.80;;;0.98;;
6444;SDS011;64733;51.424;5.484;2022-12-07T18:25:51;1.35;;;0.75;;
6444;SDS011;64733;51.424;5.484;2022-12-07T18:28:18;1.55;;;1.02;;
6444;SDS011;64733;51.424;5.484;2022-12-07T18:30:45;2.50;;;1.13;;
6444;SDS011;64733;51.424;5.484;2022-12-07T18:33:15;1.45;;;1.00;;
6444;SDS011;64733;51.424;5.484;2022-12-07T18:35:42;2.30;;;0.20;;
6444;SDS011;64733;51.424;5.484;2022-12-07T18:38:09;1.95;;;0.70;;
6444;SDS011;64733;51.424;5.484;2022-12-07T18:40:37;3.70;;;0.60;;
6444;SDS011;64733;51.424;5.484;2022-12-07T18:43:04;2.88;;;1.02;;
6444;SDS011;64733;51.424;5.484;2022-12-07T18:45:33;4.68;;;0.88;;
6444;SDS011;64733;51.424;5.484;2022-12-07T18:48:00;4.22;;;0.60;;
6444;SDS011;64733;51.424;5.484;2022-12-07T18:50:27;6.25;;;0.80;;
6444;SDS011;64733;51.424;5.484;2022-12-07T18:52:55;2.00;;;0.77;;
6444;SDS011;64733;51.424;5.484;2022-12-07T18:55:23;4.07;;;0.52;;
6444;SDS011;64733;51.424;5.484;2022-12-07T18:57:52;4.32;;;0.80;;
6444;SDS011;64733;51.424;5.484;2022-12-07T19:00:19;2.78;;;1.17;;
6444;SDS011;64733;51.424;5.484;2022-12-07T19:02:47;0.65;;;0.57;;
6444;SDS011;64733;51.424;5.484;2022-12-07T19:05:14;1.60;;;0.15;;
6444;SDS011;64733;51.424;5.484;2022-12-07T19:07:41;1.67;;;1.00;;
6444;SDS011;64733;51.424;5.484;2022-12-07T19:10:08;2.35;;;1.23;;
6444;SDS011;64733;51.424;5.484;2022-12-07T19:12:36;1.98;;;0.80;;
6444;SDS011;64733;51.424;5.484;2022-12-07T19:15:05;3.38;;;0.60;;
6444;SDS011;64733;51.424;5.484;2022-12-07T19:17:33;1.33;;;0.75;;
6444;SDS011;64733;51.424;5.484;2022-12-07T19:20:01;2.80;;;1.10;;
6444;SDS011;64733;51.424;5.484;2022-12-07T19:22:29;1.13;;;0.60;;
6444;SDS011;64733;51.424;5.484;2022-12-07T19:24:56;4.57;;;1.20;;
6444;SDS011;64733;51.424;5.484;2022-12-07T19:27:23;2.58;;;0.60;;
6444;SDS011;64733;51.424;5.484;2022-12-07T19:29:51;1.38;;;0.95;;
6444;SDS011;64733;51.424;5.484;2022-12-07T19:32:19;1.00;;;0.65;;
6444;SDS011;64733;51.424;5.484;2022-12-07T19:34:46;2.58;;;1.10;;
6444;SDS011;64733;51.424;5.484;2022-12-07T19:37:14;2.75;;;0.95;;
6444;SDS011;64733;51.424;5.484;2022-12-07T19:39:41;1.33;;;0.60;;
6444;SDS011;64733;51.424;5.484;2022-12-07T19:42:10;3.67;;;0.95;;
6444;SDS011;64733;51.424;5.484;2022-12-07T19:44:37;1.35;;;0.52;;
6444;SDS011;64733;51.424;5.484;2022-12-07T19:47:04;1.63;;;0.68;;
6444;SDS011;64733;51.424;5.484;2022-12-07T19:49:33;1.50;;;0.70;;
6444;SDS011;64733;51.424;5.484;2022-12-07T19:52:02;3.42;;;1.00;;
6444;SDS011;64733;51.424;5.484;2022-12-07T19:54:30;1.50;;;0.40;;
6444;SDS011;64733;51.424;5.484;2022-12-07T19:56:57;2.47;;;1.48;;
6444;SDS011;64733;51.424;5.484;2022-12-07T19:59:24;3.65;;;1.08;;
6444;SDS011;64733;51.424;5.484;2022-12-07T20:01:52;1.88;;;0.68;;
6444;SDS011;64733;51.424;5.484;2022-12-07T20:04:20;5.38;;;0.90;;
6444;SDS011;64733;51.424;5.484;2022-12-07T20:06:50;0.95;;;0.10;;
6444;SDS011;64733;51.424;5.484;2022-12-07T20:09:18;0.60;;;0.55;;
6444;SDS011;64733;51.424;5.484;2022-12-07T20:11:46;1.30;;;0.40;;
6444;SDS011;64733;51.424;5.484;2022-12-07T20:14:31;3.92;;;0.93;;
6444;SDS011;64733;51.424;5.484;2022-12-07T20:16:58;11.32;;;2.85;;
6444;SDS011;64733;51.424;5.484;2022-12-07T20:19:25;8.88;;;2.40;;
6444;SDS011;64733;51.424;5.484;2022-12-07T20:21:53;5.18;;;1.58;;
6444;SDS011;64733;51.424;5.484;2022-12-07T20:24:21;3.60;;;1.90;;
6444;SDS011;64733;51.424;5.484;2022-12-07T20:26:49;9.02;;;2.42;;
6444;SDS011;64733;51.424;5.484;2022-12-07T20:29:17;6.38;;;1.95;;
6444;SDS011;64733;51.424;5.484;2022-12-07T20:31:46;3.55;;;0.93;;
6444;SDS011;64733;51.424;5.484;2022-12-07T20:34:14;5.97;;;2.08;;
6444;SDS011;64733;51.424;5.484;2022-12-07T20:36:40;4.38;;;0.57;;
6444;SDS011;64733;51.424;5.484;2022-12-07T20:39:09;5.05;;;2.22;;
6444;SDS011;64733;51.424;5.484;2022-12-07T20:41:35;6.25;;;1.70;;
6444;SDS011;64733;51.424;5.484;2022-12-07T20:44:22;6.78;;;1.80;;
6444;SDS011;64733;51.424;5.484;2022-12-07T20:46:48;5.72;;;1.25;;
6444;SDS011;64733;51.424;5.484;2022-12-07T20:49:15;6.10;;;1.63;;
6444;SDS011;64733;51.424;5.484;2022-12-07T20:51:42;4.28;;;1.65;;
6444;SDS011;64733;51.424;5.484;2022-12-07T20:54:11;3.35;;;0.80;;
6444;SDS011;64733;51.424;5.484;2022-12-07T20:56:38;4.68;;;1.70;;
6444;SDS011;64733;51.424;5.484;2022-12-07T20:59:06;5.78;;;1.33;;
6444;SDS011;64733;51.424;5.484;2022-12-07T21:01:34;4.18;;;1.33;;
6444;SDS011;64733;51.424;5.484;2022-12-07T21:04:01;4.15;;;1.25;;
6444;SDS011;64733;51.424;5.484;2022-12-07T21:06:28;2.88;;;1.27;;
6444;SDS011;64733;51.424;5.484;2022-12-07T21:08:55;2.17;;;1.00;;
6444;SDS011;64733;51.424;5.484;2022-12-07T21:11:26;3.40;;;1.70;;
6444;SDS011;64733;51.424;5.484;2022-12-07T21:13:55;3.10;;;1.17;;
6444;SDS011;64733;51.424;5.484;2022-12-07T21:16:23;3.35;;;1.58;;
6444;SDS011;64733;51.424;5.484;2022-12-07T21:18:51;2.42;;;1.50;;
6444;SDS011;64733;51.424;5.484;2022-12-07T21:21:19;4.53;;;1.83;;
6444;SDS011;64733;51.424;5.484;2022-12-07T21:23:46;6.30;;;1.75;;
6444;SDS011;64733;51.424;5.484;2022-12-07T21:26:15;3.45;;;1.73;;
6444;SDS011;64733;51.424;5.484;2022-12-07T21:28:44;2.60;;;1.42;;
6444;SDS011;64733;51.424;5.484;2022-12-07T21:31:11;2.33;;;1.00;;
6444;SDS011;64733;51.424;5.484;2022-12-07T21:33:38;3.40;;;1.00;;
6444;SDS011;64733;51.424;5.484;2022-12-07T21:36:05;1.98;;;0.20;;
6444;SDS011;64733;51.424;5.484;2022-12-07T21:38:34;2.97;;;0.82;;
6444;SDS011;64733;51.424;5.484;2022-12-07T21:41:09;3.35;;;1.15;;
6444;SDS011;64733;51.424;5.484;2022-12-07T21:43:36;0.90;;;0.10;;
6444;SDS011;64733;51.424;5.484;2022-12-07T21:46:04;2.53;;;1.20;;
6444;SDS011;64733;51.424;5.484;2022-12-07T21:48:31;2.50;;;1.20;;
6444;SDS011;64733;51.424;5.484;2022-12-07T21:51:02;2.55;;;1.25;;
6444;SDS011;64733;51.424;5.484;2022-12-07T21:53:29;2.60;;;1.38;;
6444;SDS011;64733;51.424;5.484;2022-12-07T21:55:56;1.83;;;1.27;;
6444;SDS011;64733;51.424;5.484;2022-12-07T21:58:22;1.55;;;1.10;;
6444;SDS011;64733;51.424;5.484;2022-12-07T22:00:49;2.95;;;1.52;;
6444;SDS011;64733;51.424;5.484;2022-12-07T22:03:17;4.15;;;1.67;;
6444;SDS011;64733;51.424;5.484;2022-12-07T22:05:44;2.10;;;1.20;;
6444;SDS011;64733;51.424;5.484;2022-12-07T22:08:10;1.75;;;1.52;;
6444;SDS011;64733;51.424;5.484;2022-12-07T22:10:37;1.73;;;0.73;;
6444;SDS011;64733;51.424;5.484;2022-12-07T22:13:04;1.23;;;0.90;;
6444;SDS011;64733;51.424;5.484;2022-12-07T22:15:30;1.58;;;1.15;;
6444;SDS011;64733;51.424;5.484;2022-12-07T22:17:56;2.53;;;1.10;;
6444;SDS011;64733;51.424;5.484;2022-12-07T22:20:24;3.53;;;1.23;;
6444;SDS011;64733;51.424;5.484;2022-12-07T22:22:51;1.65;;;1.02;;
6444;SDS011;64733;51.424;5.484;2022-12-07T22:25:18;1.63;;;1.10;;
6444;SDS011;64733;51.424;5.484;2022-12-07T22:27:44;3.10;;;1.17;;
6444;SDS011;64733;51.424;5.484;2022-12-07T22:30:11;1.85;;;0.88;;
6444;SDS011;64733;51.424;5.484;2022-12-07T22:32:38;3.00;;;0.57;;
6444;SDS011;64733;51.424;5.484;2022-12-07T22:35:05;1.42;;;1.15;;
6444;SDS011;64733;51.424;5.484;2022-12-07T22:37:33;2.17;;;1.60;;
6444;SDS011;64733;51.424;5.484;2022-12-07T22:40:00;2.47;;;0.82;;
6444;SDS011;64733;51.424;5.484;2022-12-07T22:42:27;4.15;;;1.38;;
6444;SDS011;64733;51.424;5.484;2022-12-07T22:44:53;2.45;;;1.33;;
6444;SDS011;64733;51.424;5.484;2022-12-07T22:47:20;2.15;;;0.80;;
6444;SDS011;64733;51.424;5.484;2022-12-07T22:49:47;3.28;;;1.23;;
6444;SDS011;64733;51.424;5.484;2022-12-07T22:52:15;2.17;;;1.02;;
6444;SDS011;64733;51.424;5.484;2022-12-07T22:54:42;1.83;;;0.70;;
6444;SDS011;64733;51.424;5.484;2022-12-07T22:57:09;1.35;;;0.75;;
6444;SDS011;64733;51.424;5.484;2022-12-07T22:59:38;1.85;;;0.85;;
6444;SDS011;64733;51.424;5.484;2022-12-07T23:56:42;1.42;;;0.43;;
6444;SDS011;64733;51.424;5.484;2022-12-07T23:59:09;1.38;;;0.32;;
